sensor_id;sensor_type;location;lat;lon;timestamp;temperature;humidity
62581;DHT22;48640;48.770;9.148;2023-06-19T00:01:04;24.60;48.50
62581;DHT22;48640;48.770;9.148;2023-06-19T00:03:31;24.60;48.60
62581;DHT22;48640;48.770;9.148;2023-06-19T00:05:58;24.50;48.50
62581;DHT22;48640;48.770;9.148;2023-06-19T00:08:25;24.60;48.50
62581;DHT22;48640;48.770;9.148;2023-06-19T00:10:51;24.60;48.50
62581;DHT22;48640;48.770;9.148;2023-06-19T00:13:19;24.60;48.50
62581;DHT22;48640;48.770;9.148;2023-06-19T00:15:46;24.60;48.60
62581;DHT22;48640;48.770;9.148;2023-06-19T00:18:13;24.50;48.50
62581;DHT22;48640;48.770;9.148;2023-06-19T00:20:41;24.50;48.40
62581;DHT22;48640;48.770;9.148;2023-06-19T00:23:11;24.50;48.30
62581;DHT22;48640;48.770;9.148;2023-06-19T00:25:40;24.50;48.40
62581;DHT22;48640;48.770;9.148;2023-06-19T00:28:07;24.60;48.40
62581;DHT22;48640;48.770;9.148;2023-06-19T00:30:38;24.50;48.20
62581;DHT22;48640;48.770;9.148;2023-06-19T00:33:05;24.70;48.10
62581;DHT22;48640;48.770;9.148;2023-06-19T00:35:32;24.60;47.90
62581;DHT22;48640;48.770;9.148;2023-06-19T00:37:59;24.60;48.00
62581;DHT22;48640;48.770;9.148;2023-06-19T00:40:28;24.70;47.80
62581;DHT22;48640;48.770;9.148;2023-06-19T00:42:55;24.70;47.70
62581;DHT22;48640;48.770;9.148;2023-06-19T00:45:22;24.70;47.70
62581;DHT22;48640;48.770;9.148;2023-06-19T00:47:52;24.70;47.70
62581;DHT22;48640;48.770;9.148;2023-06-19T00:50:20;24.70;47.50
62581;DHT22;48640;48.770;9.148;2023-06-19T00:52:47;24.70;47.50
62581;DHT22;48640;48.770;9.148;2023-06-19T00:55:15;24.60;47.50
62581;DHT22;48640;48.770;9.148;2023-06-19T00:57:42;24.70;47.70
62581;DHT22;48640;48.770;9.148;2023-06-19T01:00:10;24.70;47.80
62581;DHT22;48640;48.770;9.148;2023-06-19T01:02:38;24.70;47.70
62581;DHT22;48640;48.770;9.148;2023-06-19T01:05:07;24.70;47.90
62581;DHT22;48640;48.770;9.148;2023-06-19T01:07:43;24.60;48.20
62581;DHT22;48640;48.770;9.148;2023-06-19T01:10:13;24.60;48.60
62581;DHT22;48640;48.770;9.148;2023-06-19T01:12:46;24.60;48.80
62581;DHT22;48640;48.770;9.148;2023-06-19T01:15:18;24.40;48.90
62581;DHT22;48640;48.770;9.148;2023-06-19T01:17:45;24.40;49.30
62581;DHT22;48640;48.770;9.148;2023-06-19T01:20:14;24.40;49.00
62581;DHT22;48640;48.770;9.148;2023-06-19T01:22:42;24.50;49.10
62581;DHT22;48640;48.770;9.148;2023-06-19T01:25:10;24.40;49.40
62581;DHT22;48640;48.770;9.148;2023-06-19T01:27:38;24.30;49.70
62581;DHT22;48640;48.770;9.148;2023-06-19T01:30:06;24.20;50.10
62581;DHT22;48640;48.770;9.148;2023-06-19T01:32:43;24.10;50.30
62581;DHT22;48640;48.770;9.148;2023-06-19T01:35:13;23.90;50.70
62581;DHT22;48640;48.770;9.148;2023-06-19T01:37:42;23.80;51.10
62581;DHT22;48640;48.770;9.148;2023-06-19T01:40:11;23.70;51.50
62581;DHT22;48640;48.770;9.148;2023-06-19T01:42:39;23.70;51.90
62581;DHT22;48640;48.770;9.148;2023-06-19T01:45:07;23.60;52.20
62581;DHT22;48640;48.770;9.148;2023-06-19T01:47:34;23.60;52.50
62581;DHT22;48640;48.770;9.148;2023-06-19T01:50:01;23.50;52.70
62581;DHT22;48640;48.770;9.148;2023-06-19T01:52:28;23.50;52.80
62581;DHT22;48640;48.770;9.148;2023-06-19T01:54:56;23.40;53.40
62581;DHT22;48640;48.770;9.148;2023-06-19T01:57:23;23.50;54.00
62581;DHT22;48640;48.770;9.148;2023-06-19T01:59:50;23.40;54.40
62581;DHT22;48640;48.770;9.148;2023-06-19T02:02:17;23.40;54.90
62581;DHT22;48640;48.770;9.148;2023-06-19T02:04:43;23.30;55.20
62581;DHT22;48640;48.770;9.148;2023-06-19T02:07:10;23.20;55.50
62581;DHT22;48640;48.770;9.148;2023-06-19T02:09:38;23.20;55.80
62581;DHT22;48640;48.770;9.148;2023-06-19T02:12:07;23.20;56.30
62581;DHT22;48640;48.770;9.148;2023-06-19T02:14:34;23.20;56.90
62581;DHT22;48640;48.770;9.148;2023-06-19T02:17:01;23.10;57.30
62581;DHT22;48640;48.770;9.148;2023-06-19T02:19:28;23.10;57.60
62581;DHT22;48640;48.770;9.148;2023-06-19T02:21:54;23.10;57.90
62581;DHT22;48640;48.770;9.148;2023-06-19T02:24:21;23.10;58.20
62581;DHT22;48640;48.770;9.148;2023-06-19T02:26:48;23.10;58.10
62581;DHT22;48640;48.770;9.148;2023-06-19T02:29:16;23.00;58.20
62581;DHT22;48640;48.770;9.148;2023-06-19T02:31:44;23.00;58.50
62581;DHT22;48640;48.770;9.148;2023-06-19T02:34:10;23.00;58.70
62581;DHT22;48640;48.770;9.148;2023-06-19T02:36:37;23.00;59.10
62581;DHT22;48640;48.770;9.148;2023-06-19T02:39:04;23.00;59.30
62581;DHT22;48640;48.770;9.148;2023-06-19T02:41:32;22.90;59.60
62581;DHT22;48640;48.770;9.148;2023-06-19T02:43:58;22.90;59.90
62581;DHT22;48640;48.770;9.148;2023-06-19T02:46:26;22.90;60.30
62581;DHT22;48640;48.770;9.148;2023-06-19T02:48:53;23.00;60.30
62581;DHT22;48640;48.770;9.148;2023-06-19T02:51:20;23.00;60.40
62581;DHT22;48640;48.770;9.148;2023-06-19T02:53:47;23.00;60.30
62581;DHT22;48640;48.770;9.148;2023-06-19T02:56:13;23.00;60.60
62581;DHT22;48640;48.770;9.148;2023-06-19T02:58:40;23.00;60.90
62581;DHT22;48640;48.770;9.148;2023-06-19T03:01:07;22.90;60.90
62581;DHT22;48640;48.770;9.148;2023-06-19T03:03:35;22.90;61.30
62581;DHT22;48640;48.770;9.148;2023-06-19T03:06:04;23.00;61.50
62581;DHT22;48640;48.770;9.148;2023-06-19T03:08:31;22.90;61.50
62581;DHT22;48640;48.770;9.148;2023-06-19T03:10:57;22.90;61.70
62581;DHT22;48640;48.770;9.148;2023-06-19T03:13:25;22.90;61.80
62581;DHT22;48640;48.770;9.148;2023-06-19T03:15:51;23.00;62.00
62581;DHT22;48640;48.770;9.148;2023-06-19T03:18:18;23.00;61.90
62581;DHT22;48640;48.770;9.148;2023-06-19T03:20:47;22.90;62.00
62581;DHT22;48640;48.770;9.148;2023-06-19T03:23:13;22.90;62.60
62581;DHT22;48640;48.770;9.148;2023-06-19T03:25:40;22.90;62.80
62581;DHT22;48640;48.770;9.148;2023-06-19T03:28:08;22.90;63.80
62581;DHT22;48640;48.770;9.148;2023-06-19T03:30:35;22.80;64.30
62581;DHT22;48640;48.770;9.148;2023-06-19T03:33:01;22.80;64.60
62581;DHT22;48640;48.770;9.148;2023-06-19T03:35:28;22.70;64.70
62581;DHT22;48640;48.770;9.148;2023-06-19T03:37:56;22.70;64.70
62581;DHT22;48640;48.770;9.148;2023-06-19T03:40:23;22.60;65.80
62581;DHT22;48640;48.770;9.148;2023-06-19T03:42:50;22.60;65.70
62581;DHT22;48640;48.770;9.148;2023-06-19T03:45:16;22.40;66.50
62581;DHT22;48640;48.770;9.148;2023-06-19T03:47:43;22.40;67.50
62581;DHT22;48640;48.770;9.148;2023-06-19T03:50:10;22.30;68.40
62581;DHT22;48640;48.770;9.148;2023-06-19T03:52:37;22.30;69.20
62581;DHT22;48640;48.770;9.148;2023-06-19T03:55:06;22.20;69.70
62581;DHT22;48640;48.770;9.148;2023-06-19T03:57:33;22.10;69.80
62581;DHT22;48640;48.770;9.148;2023-06-19T03:59:59;22.10;70.40
62581;DHT22;48640;48.770;9.148;2023-06-19T04:02:26;22.00;70.20
62581;DHT22;48640;48.770;9.148;2023-06-19T04:04:53;21.90;70.70
62581;DHT22;48640;48.770;9.148;2023-06-19T04:07:20;21.90;70.90
62581;DHT22;48640;48.770;9.148;2023-06-19T04:09:46;22.00;71.10
62581;DHT22;48640;48.770;9.148;2023-06-19T04:12:14;22.00;71.20
62581;DHT22;48640;48.770;9.148;2023-06-19T04:14:41;21.90;71.80
62581;DHT22;48640;48.770;9.148;2023-06-19T04:17:08;21.90;73.00
62581;DHT22;48640;48.770;9.148;2023-06-19T04:19:35;21.90;74.00
62581;DHT22;48640;48.770;9.148;2023-06-19T04:22:02;21.90;75.00
62581;DHT22;48640;48.770;9.148;2023-06-19T04:24:28;21.90;75.20
62581;DHT22;48640;48.770;9.148;2023-06-19T04:26:55;21.90;75.30
62581;DHT22;48640;48.770;9.148;2023-06-19T04:29:23;21.80;75.60
62581;DHT22;48640;48.770;9.148;2023-06-19T04:31:50;21.80;76.00
62581;DHT22;48640;48.770;9.148;2023-06-19T04:34:17;21.90;75.90
62581;DHT22;48640;48.770;9.148;2023-06-19T04:36:46;21.80;76.00
62581;DHT22;48640;48.770;9.148;2023-06-19T04:39:13;21.80;76.30
62581;DHT22;48640;48.770;9.148;2023-06-19T04:41:40;21.80;76.20
62581;DHT22;48640;48.770;9.148;2023-06-19T04:44:09;21.90;76.90
62581;DHT22;48640;48.770;9.148;2023-06-19T04:46:38;21.90;76.30
62581;DHT22;48640;48.770;9.148;2023-06-19T04:49:05;22.10;75.90
62581;DHT22;48640;48.770;9.148;2023-06-19T04:51:32;22.30;75.00
62581;DHT22;48640;48.770;9.148;2023-06-19T04:53:59;22.40;74.70
62581;DHT22;48640;48.770;9.148;2023-06-19T04:56:25;22.50;74.90
62581;DHT22;48640;48.770;9.148;2023-06-19T04:58:52;22.50;75.30
62581;DHT22;48640;48.770;9.148;2023-06-19T05:01:21;22.70;74.40
62581;DHT22;48640;48.770;9.148;2023-06-19T05:03:55;22.70;74.20
62581;DHT22;48640;48.770;9.148;2023-06-19T05:06:23;22.90;73.80
62581;DHT22;48640;48.770;9.148;2023-06-19T05:08:49;23.20;73.90
62581;DHT22;48640;48.770;9.148;2023-06-19T05:11:16;23.30;72.40
62581;DHT22;48640;48.770;9.148;2023-06-19T05:13:43;23.30;72.00
62581;DHT22;48640;48.770;9.148;2023-06-19T05:16:10;23.40;71.30
62581;DHT22;48640;48.770;9.148;2023-06-19T05:18:40;23.50;71.60
62581;DHT22;48640;48.770;9.148;2023-06-19T05:21:08;23.50;71.00
62581;DHT22;48640;48.770;9.148;2023-06-19T05:23:35;23.40;71.60
62581;DHT22;48640;48.770;9.148;2023-06-19T05:26:03;23.40;70.80
62581;DHT22;48640;48.770;9.148;2023-06-19T05:28:30;23.40;71.70
62581;DHT22;48640;48.770;9.148;2023-06-19T05:30:57;23.30;72.40
62581;DHT22;48640;48.770;9.148;2023-06-19T05:33:24;23.20;72.60
62581;DHT22;48640;48.770;9.148;2023-06-19T05:35:51;23.20;73.50
62581;DHT22;48640;48.770;9.148;2023-06-19T05:38:20;23.20;74.00
62581;DHT22;48640;48.770;9.148;2023-06-19T05:40:48;23.20;72.60
62581;DHT22;48640;48.770;9.148;2023-06-19T05:43:16;23.20;72.90
62581;DHT22;48640;48.770;9.148;2023-06-19T05:45:44;23.20;72.70
62581;DHT22;48640;48.770;9.148;2023-06-19T05:48:10;23.30;72.60
62581;DHT22;48640;48.770;9.148;2023-06-19T05:50:37;23.60;72.10
62581;DHT22;48640;48.770;9.148;2023-06-19T05:53:05;23.90;71.80
62581;DHT22;48640;48.770;9.148;2023-06-19T05:55:33;24.60;69.80
62581;DHT22;48640;48.770;9.148;2023-06-19T05:58:00;25.30;66.30
62581;DHT22;48640;48.770;9.148;2023-06-19T06:00:27;25.30;65.30
62581;DHT22;48640;48.770;9.148;2023-06-19T06:02:56;25.30;65.40
62581;DHT22;48640;48.770;9.148;2023-06-19T06:05:24;25.30;65.70
62581;DHT22;48640;48.770;9.148;2023-06-19T06:07:51;25.10;65.80
62581;DHT22;48640;48.770;9.148;2023-06-19T06:10:19;25.00;66.00
62581;DHT22;48640;48.770;9.148;2023-06-19T06:12:48;24.80;66.60
62581;DHT22;48640;48.770;9.148;2023-06-19T06:15:15;24.70;67.40
62581;DHT22;48640;48.770;9.148;2023-06-19T06:17:42;24.80;67.80
62581;DHT22;48640;48.770;9.148;2023-06-19T06:20:09;24.80;67.90
62581;DHT22;48640;48.770;9.148;2023-06-19T06:22:37;24.80;66.90
62581;DHT22;48640;48.770;9.148;2023-06-19T06:25:05;24.80;67.50
62581;DHT22;48640;48.770;9.148;2023-06-19T06:27:32;25.10;67.20
62581;DHT22;48640;48.770;9.148;2023-06-19T06:30:00;25.30;65.40
62581;DHT22;48640;48.770;9.148;2023-06-19T06:32:27;25.70;63.70
62581;DHT22;48640;48.770;9.148;2023-06-19T06:34:54;26.10;63.30
62581;DHT22;48640;48.770;9.148;2023-06-19T06:37:21;26.70;61.50
62581;DHT22;48640;48.770;9.148;2023-06-19T06:39:48;27.40;59.00
62581;DHT22;48640;48.770;9.148;2023-06-19T06:42:15;27.70;56.70
62581;DHT22;48640;48.770;9.148;2023-06-19T06:44:42;27.60;55.60
62581;DHT22;48640;48.770;9.148;2023-06-19T06:47:11;27.40;56.40
62581;DHT22;48640;48.770;9.148;2023-06-19T06:49:38;27.40;56.90
62581;DHT22;48640;48.770;9.148;2023-06-19T06:52:05;27.30;56.20
62581;DHT22;48640;48.770;9.148;2023-06-19T06:54:32;27.20;56.90
62581;DHT22;48640;48.770;9.148;2023-06-19T06:56:58;27.00;56.20
62581;DHT22;48640;48.770;9.148;2023-06-19T06:59:26;26.80;57.00
62581;DHT22;48640;48.770;9.148;2023-06-19T07:01:53;26.60;57.40
62581;DHT22;48640;48.770;9.148;2023-06-19T07:04:22;26.40;58.10
62581;DHT22;48640;48.770;9.148;2023-06-19T07:06:49;26.20;58.20
62581;DHT22;48640;48.770;9.148;2023-06-19T07:09:16;26.30;58.50
62581;DHT22;48640;48.770;9.148;2023-06-19T07:11:43;26.10;58.20
62581;DHT22;48640;48.770;9.148;2023-06-19T07:14:09;26.10;59.00
62581;DHT22;48640;48.770;9.148;2023-06-19T07:16:36;26.10;59.10
62581;DHT22;48640;48.770;9.148;2023-06-19T07:19:03;26.00;59.50
62581;DHT22;48640;48.770;9.148;2023-06-19T07:21:31;26.10;59.00
62581;DHT22;48640;48.770;9.148;2023-06-19T07:23:59;26.30;58.30
62581;DHT22;48640;48.770;9.148;2023-06-19T07:26:26;26.30;57.20
62581;DHT22;48640;48.770;9.148;2023-06-19T07:28:52;26.40;57.20
62581;DHT22;48640;48.770;9.148;2023-06-19T07:31:19;26.70;57.00
62581;DHT22;48640;48.770;9.148;2023-06-19T07:33:46;27.50;56.10
62581;DHT22;48640;48.770;9.148;2023-06-19T07:36:13;28.80;53.20
62581;DHT22;48640;48.770;9.148;2023-06-19T07:38:43;29.30;50.60
62581;DHT22;48640;48.770;9.148;2023-06-19T07:41:10;30.40;48.60
62581;DHT22;48640;48.770;9.148;2023-06-19T07:43:37;31.10;46.90
62581;DHT22;48640;48.770;9.148;2023-06-19T07:46:04;31.90;44.80
62581;DHT22;48640;48.770;9.148;2023-06-19T07:48:31;32.40;43.10
62581;DHT22;48640;48.770;9.148;2023-06-19T07:50:57;32.30;42.70
62581;DHT22;48640;48.770;9.148;2023-06-19T07:53:24;32.00;41.90
62581;DHT22;48640;48.770;9.148;2023-06-19T07:55:52;31.20;43.70
62581;DHT22;48640;48.770;9.148;2023-06-19T07:58:19;30.40;45.00
62581;DHT22;48640;48.770;9.148;2023-06-19T08:00:46;29.90;46.10
62581;DHT22;48640;48.770;9.148;2023-06-19T08:03:12;30.00;46.40
62581;DHT22;48640;48.770;9.148;2023-06-19T08:05:39;30.50;45.90
62581;DHT22;48640;48.770;9.148;2023-06-19T08:08:06;30.90;45.20
62581;DHT22;48640;48.770;9.148;2023-06-19T08:10:33;30.60;44.80
62581;DHT22;48640;48.770;9.148;2023-06-19T08:13:01;30.00;45.50
62581;DHT22;48640;48.770;9.148;2023-06-19T08:15:28;29.80;46.70
62581;DHT22;48640;48.770;9.148;2023-06-19T08:17:55;29.70;47.00
62581;DHT22;48640;48.770;9.148;2023-06-19T08:20:22;29.30;47.70
62581;DHT22;48640;48.770;9.148;2023-06-19T08:22:48;29.30;47.50
62581;DHT22;48640;48.770;9.148;2023-06-19T08:25:15;28.70;48.00
62581;DHT22;48640;48.770;9.148;2023-06-19T08:27:42;28.40;49.00
62581;DHT22;48640;48.770;9.148;2023-06-19T08:30:12;28.10;50.60
62581;DHT22;48640;48.770;9.148;2023-06-19T08:32:39;28.10;51.10
62581;DHT22;48640;48.770;9.148;2023-06-19T08:35:06;28.00;50.60
62581;DHT22;48640;48.770;9.148;2023-06-19T08:37:33;27.90;51.30
62581;DHT22;48640;48.770;9.148;2023-06-19T08:40:00;28.00;51.20
62581;DHT22;48640;48.770;9.148;2023-06-19T08:42:29;28.00;51.50
62581;DHT22;48640;48.770;9.148;2023-06-19T08:44:56;28.30;51.00
62581;DHT22;48640;48.770;9.148;2023-06-19T08:47:29;28.70;50.50
62581;DHT22;48640;48.770;9.148;2023-06-19T08:49:55;29.80;49.60
62581;DHT22;48640;48.770;9.148;2023-06-19T08:52:22;31.60;45.00
62581;DHT22;48640;48.770;9.148;2023-06-19T08:54:49;32.80;42.70
62581;DHT22;48640;48.770;9.148;2023-06-19T08:57:16;34.00;39.40
62581;DHT22;48640;48.770;9.148;2023-06-19T08:59:48;34.90;37.40
62581;DHT22;48640;48.770;9.148;2023-06-19T09:02:15;35.50;37.10
62581;DHT22;48640;48.770;9.148;2023-06-19T09:04:43;36.30;34.20
62581;DHT22;48640;48.770;9.148;2023-06-19T09:07:12;37.10;34.20
62581;DHT22;48640;48.770;9.148;2023-06-19T09:09:44;38.10;31.70
62581;DHT22;48640;48.770;9.148;2023-06-19T09:12:13;38.30;30.70
62581;DHT22;48640;48.770;9.148;2023-06-19T09:14:41;38.00;30.50
62581;DHT22;48640;48.770;9.148;2023-06-19T09:17:11;38.70;31.20
62581;DHT22;48640;48.770;9.148;2023-06-19T09:19:38;39.10;29.70
62581;DHT22;48640;48.770;9.148;2023-06-19T09:22:07;38.90;28.90
62581;DHT22;48640;48.770;9.148;2023-06-19T09:24:37;38.60;29.60
62581;DHT22;48640;48.770;9.148;2023-06-19T09:27:08;39.30;29.20
62581;DHT22;48640;48.770;9.148;2023-06-19T09:29:37;41.10;27.80
62581;DHT22;48640;48.770;9.148;2023-06-19T09:32:14;40.80;27.50
62581;DHT22;48640;48.770;9.148;2023-06-19T09:34:41;41.10;27.20
62581;DHT22;48640;48.770;9.148;2023-06-19T09:37:10;40.40;27.30
62581;DHT22;48640;48.770;9.148;2023-06-19T09:39:37;40.00;27.90
62581;DHT22;48640;48.770;9.148;2023-06-19T09:42:07;39.70;27.40
62581;DHT22;48640;48.770;9.148;2023-06-19T09:44:40;39.30;28.70
62581;DHT22;48640;48.770;9.148;2023-06-19T09:47:14;39.00;28.80
62581;DHT22;48640;48.770;9.148;2023-06-19T09:49:48;37.70;30.40
62581;DHT22;48640;48.770;9.148;2023-06-19T09:52:17;36.60;32.30
62581;DHT22;48640;48.770;9.148;2023-06-19T09:54:47;36.40;33.30
62581;DHT22;48640;48.770;9.148;2023-06-19T09:57:14;36.20;33.20
62581;DHT22;48640;48.770;9.148;2023-06-19T09:59:42;35.60;35.00
62581;DHT22;48640;48.770;9.148;2023-06-19T10:02:09;35.70;34.60
62581;DHT22;48640;48.770;9.148;2023-06-19T10:04:44;35.20;34.60
62581;DHT22;48640;48.770;9.148;2023-06-19T10:07:17;34.90;35.90
62581;DHT22;48640;48.770;9.148;2023-06-19T10:10:03;34.90;35.00
62581;DHT22;48640;48.770;9.148;2023-06-19T10:12:39;34.70;35.80
62581;DHT22;48640;48.770;9.148;2023-06-19T10:15:15;33.70;36.90
62581;DHT22;48640;48.770;9.148;2023-06-19T10:17:47;33.50;38.20
62581;DHT22;48640;48.770;9.148;2023-06-19T10:20:22;34.20;37.50
62581;DHT22;48640;48.770;9.148;2023-06-19T10:23:03;35.70;35.40
62581;DHT22;48640;48.770;9.148;2023-06-19T10:25:31;37.40;33.60
62581;DHT22;48640;48.770;9.148;2023-06-19T10:27:58;38.40;31.70
62581;DHT22;48640;48.770;9.148;2023-06-19T10:30:26;39.00;30.40
62581;DHT22;48640;48.770;9.148;2023-06-19T10:32:53;38.40;30.50
62581;DHT22;48640;48.770;9.148;2023-06-19T10:35:20;37.80;31.30
62581;DHT22;48640;48.770;9.148;2023-06-19T10:37:51;36.30;33.40
62581;DHT22;48640;48.770;9.148;2023-06-19T10:40:19;36.10;34.40
62581;DHT22;48640;48.770;9.148;2023-06-19T10:42:46;36.10;34.30
62581;DHT22;48640;48.770;9.148;2023-06-19T10:45:14;34.90;35.80
62581;DHT22;48640;48.770;9.148;2023-06-19T10:47:42;34.00;37.30
62581;DHT22;48640;48.770;9.148;2023-06-19T10:50:10;32.80;39.40
62581;DHT22;48640;48.770;9.148;2023-06-19T10:52:40;32.30;41.00
62581;DHT22;48640;48.770;9.148;2023-06-19T10:55:08;32.10;41.80
62581;DHT22;48640;48.770;9.148;2023-06-19T10:57:36;32.20;41.80
62581;DHT22;48640;48.770;9.148;2023-06-19T11:00:05;32.30;41.60
62581;DHT22;48640;48.770;9.148;2023-06-19T11:02:37;32.50;42.60
62581;DHT22;48640;48.770;9.148;2023-06-19T11:05:05;32.70;41.30
62581;DHT22;48640;48.770;9.148;2023-06-19T11:07:33;32.00;42.00
62581;DHT22;48640;48.770;9.148;2023-06-19T11:09:59;31.80;43.10
62581;DHT22;48640;48.770;9.148;2023-06-19T11:12:26;31.70;43.40
62581;DHT22;48640;48.770;9.148;2023-06-19T11:14:54;32.00;43.70
62581;DHT22;48640;48.770;9.148;2023-06-19T11:17:22;33.10;42.50
62581;DHT22;48640;48.770;9.148;2023-06-19T11:19:49;33.90;40.30
62581;DHT22;48640;48.770;9.148;2023-06-19T11:22:16;34.90;37.90
62581;DHT22;48640;48.770;9.148;2023-06-19T11:24:44;36.10;35.80
62581;DHT22;48640;48.770;9.148;2023-06-19T11:27:19;36.60;35.00
62581;DHT22;48640;48.770;9.148;2023-06-19T11:29:56;36.80;35.00
62581;DHT22;48640;48.770;9.148;2023-06-19T11:32:24;36.60;34.80
62581;DHT22;48640;48.770;9.148;2023-06-19T11:34:56;37.20;34.30
62581;DHT22;48640;48.770;9.148;2023-06-19T11:37:23;37.70;33.00
62581;DHT22;48640;48.770;9.148;2023-06-19T11:39:50;37.10;33.00
62581;DHT22;48640;48.770;9.148;2023-06-19T11:42:18;36.20;34.20
62581;DHT22;48640;48.770;9.148;2023-06-19T11:44:55;35.40;35.10
62581;DHT22;48640;48.770;9.148;2023-06-19T11:47:22;33.90;37.60
62581;DHT22;48640;48.770;9.148;2023-06-19T11:49:50;33.50;39.20
62581;DHT22;48640;48.770;9.148;2023-06-19T11:52:17;33.80;39.10
62581;DHT22;48640;48.770;9.148;2023-06-19T11:54:44;34.20;38.50
62581;DHT22;48640;48.770;9.148;2023-06-19T11:57:11;34.60;37.60
62581;DHT22;48640;48.770;9.148;2023-06-19T11:59:38;35.00;36.80
62581;DHT22;48640;48.770;9.148;2023-06-19T12:02:08;35.00;37.60
62581;DHT22;48640;48.770;9.148;2023-06-19T12:04:35;34.70;36.70
62581;DHT22;48640;48.770;9.148;2023-06-19T12:07:02;34.10;37.50
62581;DHT22;48640;48.770;9.148;2023-06-19T12:09:29;33.60;38.60
62581;DHT22;48640;48.770;9.148;2023-06-19T12:11:57;33.20;40.10
62581;DHT22;48640;48.770;9.148;2023-06-19T12:14:24;33.20;39.90
62581;DHT22;48640;48.770;9.148;2023-06-19T12:16:51;32.70;40.40
62581;DHT22;48640;48.770;9.148;2023-06-19T12:19:20;32.20;41.50
62581;DHT22;48640;48.770;9.148;2023-06-19T12:21:46;32.20;41.20
62581;DHT22;48640;48.770;9.148;2023-06-19T12:24:13;32.30;41.30
62581;DHT22;48640;48.770;9.148;2023-06-19T12:26:40;31.90;41.60
62581;DHT22;48640;48.770;9.148;2023-06-19T12:29:07;31.40;42.60
62581;DHT22;48640;48.770;9.148;2023-06-19T12:31:34;30.90;43.70
62581;DHT22;48640;48.770;9.148;2023-06-19T12:34:02;30.90;44.20
62581;DHT22;48640;48.770;9.148;2023-06-19T12:36:30;31.50;44.00
62581;DHT22;48640;48.770;9.148;2023-06-19T12:38:58;32.00;42.10
62581;DHT22;48640;48.770;9.148;2023-06-19T12:41:25;32.00;42.10
62581;DHT22;48640;48.770;9.148;2023-06-19T12:43:52;31.80;41.80
62581;DHT22;48640;48.770;9.148;2023-06-19T12:46:19;31.50;42.00
62581;DHT22;48640;48.770;9.148;2023-06-19T12:48:46;31.30;42.30
62581;DHT22;48640;48.770;9.148;2023-06-19T12:51:16;31.20;42.70
62581;DHT22;48640;48.770;9.148;2023-06-19T12:53:44;31.30;42.80
62581;DHT22;48640;48.770;9.148;2023-06-19T12:56:11;31.20;42.80
62581;DHT22;48640;48.770;9.148;2023-06-19T12:58:38;31.30;43.10
62581;DHT22;48640;48.770;9.148;2023-06-19T13:01:04;31.70;42.50
62581;DHT22;48640;48.770;9.148;2023-06-19T13:03:31;32.00;41.80
62581;DHT22;48640;48.770;9.148;2023-06-19T13:05:58;32.20;42.10
62581;DHT22;48640;48.770;9.148;2023-06-19T13:08:25;32.20;41.80
62581;DHT22;48640;48.770;9.148;2023-06-19T13:10:53;32.10;41.70
62581;DHT22;48640;48.770;9.148;2023-06-19T13:13:20;32.10;41.50
62581;DHT22;48640;48.770;9.148;2023-06-19T13:15:46;31.90;42.00
62581;DHT22;48640;48.770;9.148;2023-06-19T13:18:13;32.00;42.60
62581;DHT22;48640;48.770;9.148;2023-06-19T13:20:40;31.90;42.20
62581;DHT22;48640;48.770;9.148;2023-06-19T13:23:07;31.90;41.40
62581;DHT22;48640;48.770;9.148;2023-06-19T13:25:33;32.00;41.50
62581;DHT22;48640;48.770;9.148;2023-06-19T13:28:02;31.60;41.90
62581;DHT22;48640;48.770;9.148;2023-06-19T13:30:29;31.50;43.40
62581;DHT22;48640;48.770;9.148;2023-06-19T13:32:55;31.50;42.60
62581;DHT22;48640;48.770;9.148;2023-06-19T13:35:22;31.40;42.80
62581;DHT22;48640;48.770;9.148;2023-06-19T13:37:49;31.30;42.60
62581;DHT22;48640;48.770;9.148;2023-06-19T13:40:16;31.10;42.70
62581;DHT22;48640;48.770;9.148;2023-06-19T13:42:42;30.90;43.00
62581;DHT22;48640;48.770;9.148;2023-06-19T13:45:11;30.90;43.50
62581;DHT22;48640;48.770;9.148;2023-06-19T13:47:37;31.00;43.20
62581;DHT22;48640;48.770;9.148;2023-06-19T13:50:05;30.80;43.20
62581;DHT22;48640;48.770;9.148;2023-06-19T13:52:33;30.60;44.00
62581;DHT22;48640;48.770;9.148;2023-06-19T13:54:59;30.60;43.80
62581;DHT22;48640;48.770;9.148;2023-06-19T13:57:28;30.70;43.80
62581;DHT22;48640;48.770;9.148;2023-06-19T13:59:54;30.80;43.70
62581;DHT22;48640;48.770;9.148;2023-06-19T14:02:22;30.80;44.20
62581;DHT22;48640;48.770;9.148;2023-06-19T14:04:49;30.90;44.10
62581;DHT22;48640;48.770;9.148;2023-06-19T14:07:16;31.00;43.80
62581;DHT22;48640;48.770;9.148;2023-06-19T14:09:44;31.00;44.10
62581;DHT22;48640;48.770;9.148;2023-06-19T14:12:11;30.80;44.30
62581;DHT22;48640;48.770;9.148;2023-06-19T14:14:37;30.80;44.10
62581;DHT22;48640;48.770;9.148;2023-06-19T14:17:04;30.80;43.60
62581;DHT22;48640;48.770;9.148;2023-06-19T14:19:33;30.80;43.90
62581;DHT22;48640;48.770;9.148;2023-06-19T14:21:59;30.90;43.70
62581;DHT22;48640;48.770;9.148;2023-06-19T14:24:27;31.10;42.70
62581;DHT22;48640;48.770;9.148;2023-06-19T14:26:54;31.20;42.40
62581;DHT22;48640;48.770;9.148;2023-06-19T14:29:20;31.20;43.30
62581;DHT22;48640;48.770;9.148;2023-06-19T14:31:47;31.30;42.60
62581;DHT22;48640;48.770;9.148;2023-06-19T14:34:14;31.40;42.90
62581;DHT22;48640;48.770;9.148;2023-06-19T14:36:42;31.40;42.80
62581;DHT22;48640;48.770;9.148;2023-06-19T14:39:09;31.20;42.10
62581;DHT22;48640;48.770;9.148;2023-06-19T14:41:37;31.00;43.20
62581;DHT22;48640;48.770;9.148;2023-06-19T14:44:04;30.70;42.90
62581;DHT22;48640;48.770;9.148;2023-06-19T14:46:31;30.60;42.60
62581;DHT22;48640;48.770;9.148;2023-06-19T14:48:58;30.40;43.50
62581;DHT22;48640;48.770;9.148;2023-06-19T14:51:26;30.20;43.40
62581;DHT22;48640;48.770;9.148;2023-06-19T14:53:54;30.20;44.40
62581;DHT22;48640;48.770;9.148;2023-06-19T14:56:21;30.30;44.50
62581;DHT22;48640;48.770;9.148;2023-06-19T14:58:48;30.30;44.10
62581;DHT22;48640;48.770;9.148;2023-06-19T15:01:15;30.30;43.90
62581;DHT22;48640;48.770;9.148;2023-06-19T15:03:43;30.40;43.70
62581;DHT22;48640;48.770;9.148;2023-06-19T15:06:10;30.40;43.30
62581;DHT22;48640;48.770;9.148;2023-06-19T15:08:36;30.40;43.10
62581;DHT22;48640;48.770;9.148;2023-06-19T15:11:05;30.50;43.20
62581;DHT22;48640;48.770;9.148;2023-06-19T15:13:32;30.40;43.80
62581;DHT22;48640;48.770;9.148;2023-06-19T15:15:59;30.40;44.00
62581;DHT22;48640;48.770;9.148;2023-06-19T15:18:26;30.60;43.50
62581;DHT22;48640;48.770;9.148;2023-06-19T15:20:53;30.70;43.90
62581;DHT22;48640;48.770;9.148;2023-06-19T15:23:19;30.60;44.10
62581;DHT22;48640;48.770;9.148;2023-06-19T15:25:46;30.50;44.10
62581;DHT22;48640;48.770;9.148;2023-06-19T15:28:16;30.40;44.50
62581;DHT22;48640;48.770;9.148;2023-06-19T15:30:44;30.40;44.50
62581;DHT22;48640;48.770;9.148;2023-06-19T15:33:11;30.30;44.90